Map

Track Data

SID SEASON NUMBER BASIN SUBBASIN NAME ISO_TIME NATURE LAT LON WMO_WIND WMO_PRES WMO_AGENCY TRACK_TYPE DIST2LAND LANDFALL IFLAG USA_AGENCY USA_ATCF_ID USA_LAT USA_LON USA_RECORD USA_STATUS USA_WIND USA_PRES USA_SSHS USA_R34_NE USA_R34_SE USA_R34_SW USA_R34_NW USA_R50_NE USA_R50_SE USA_R50_SW USA_R50_NW USA_R64_NE USA_R64_SE USA_R64_SW USA_R64_NW USA_POCI USA_ROCI USA_RMW USA_EYE TOKYO_LAT TOKYO_LON TOKYO_GRADE TOKYO_WIND TOKYO_PRES TOKYO_R50_DIR TOKYO_R50_LONG TOKYO_R50_SHORT TOKYO_R30_DIR TOKYO_R30_LONG TOKYO_R30_SHORT TOKYO_LAND CMA_LAT CMA_LON CMA_CAT CMA_WIND CMA_PRES HKO_LAT HKO_LON HKO_CAT HKO_WIND HKO_PRES NEWDELHI_LAT NEWDELHI_LON NEWDELHI_GRADE NEWDELHI_WIND NEWDELHI_PRES NEWDELHI_CI NEWDELHI_DP NEWDELHI_POCI REUNION_LAT REUNION_LON REUNION_TYPE REUNION_WIND REUNION_PRES REUNION_TNUM REUNION_CI REUNION_RMW REUNION_R34_NE REUNION_R34_SE REUNION_R34_SW REUNION_R34_NW REUNION_R50_NE REUNION_R50_SE REUNION_R50_SW REUNION_R50_NW REUNION_R64_NE REUNION_R64_SE REUNION_R64_SW REUNION_R64_NW BOM_LAT BOM_LON BOM_TYPE BOM_WIND BOM_PRES BOM_TNUM BOM_CI BOM_RMW BOM_R34_NE BOM_R34_SE BOM_R34_SW BOM_R34_NW BOM_R50_NE BOM_R50_SE BOM_R50_SW BOM_R50_NW BOM_R64_NE BOM_R64_SE BOM_R64_SW BOM_R64_NW BOM_ROCI BOM_POCI BOM_EYE BOM_POS_METHOD BOM_PRES_METHOD NADI_LAT NADI_LON NADI_CAT NADI_WIND NADI_PRES WELLINGTON_LAT WELLINGTON_LON WELLINGTON_WIND WELLINGTON_PRES DS824_LAT DS824_LON DS824_STAGE DS824_WIND DS824_PRES TD9636_LAT TD9636_LON TD9636_STAGE TD9636_WIND TD9636_PRES TD9635_LAT TD9635_LON TD9635_WIND TD9635_PRES TD9635_ROCI NEUMANN_LAT NEUMANN_LON NEUMANN_CLASS NEUMANN_WIND NEUMANN_PRES MLC_LAT MLC_LON MLC_CLASS MLC_WIND MLC_PRES USA_GUST BOM_GUST BOM_GUST_PER REUNION_GUST REUNION_GUST_PER USA_SEAHGT USA_SEARAD_NE USA_SEARAD_SE USA_SEARAD_SW USA_SEARAD_NW STORM_SPEED STORM_DIR
1939163N18272 1939 27 NA CS NOT_NAMED 1939-06-12 06:00:00 TS 17.6000 -87.8000 30 hurdat_atl main 43 33 O_____________ hurdat_atl AL011939 17.6000 -87.8000 TD 30 -1 12 34
1939163N18272 1939 27 NA CS NOT_NAMED 1939-06-12 09:00:00 TS 18.1026 -87.4429 main 43 42 P_____________ AL011939 18.1026 -87.4429 TD 32 -1 12 34
1939163N18272 1939 27 NA CS NOT_NAMED 1939-06-12 12:00:00 TS 18.6000 -87.1000 35 hurdat_atl main 62 57 O_____________ hurdat_atl AL011939 18.6000 -87.1000 TS 35 0 12 32
1939163N18272 1939 27 NA CS NOT_NAMED 1939-06-12 15:00:00 TS 19.0924 -86.7848 main 74 74 P_____________ AL011939 19.0924 -86.7848 TS 37 0 12 30
1939163N18272 1939 27 NA CS NOT_NAMED 1939-06-12 18:00:00 TS 19.6000 -86.5000 40 hurdat_atl main 94 94 O_____________ hurdat_atl AL011939 19.6000 -86.5000 TS 40 0 12 27
1939163N18272 1939 27 NA CS NOT_NAMED 1939-06-12 21:00:00 TS 20.1350 -86.2200 main 106 85 P_____________ AL011939 20.1350 -86.2200 TS 42 0 12 23
1939163N18272 1939 27 NA CS NOT_NAMED 1939-06-13 00:00:00 TS 20.7000 -86.0000 45 hurdat_atl main 85 76 O_____________ hurdat_atl AL011939 20.7000 -86.0000 TS 45 0 12 16
1939163N18272 1939 27 NA CS NOT_NAMED 1939-06-13 03:00:00 TS 21.2924 -85.8624 main 85 82 P_____________ AL011939 21.2924 -85.8624 TS 50 0 12 9
1939163N18272 1939 27 NA GM NOT_NAMED 1939-06-13 06:00:00 TS 21.9000 -85.8000 55 hurdat_atl main 82 82 O_____________ hurdat_atl AL011939 21.9000 -85.8000 TS 55 0 12 4
1939163N18272 1939 27 NA GM NOT_NAMED 1939-06-13 09:00:00 TS 22.5075 -85.7774 main 106 106 P_____________ AL011939 22.5075 -85.7774 TS 55 0 12 1
1939163N18272 1939 27 NA GM NOT_NAMED 1939-06-13 12:00:00 TS 23.1000 -85.8000 55 hurdat_atl main 157 157 O_____________ hurdat_atl AL011939 23.1000 -85.8000 TS 55 0 12 357
1939163N18272 1939 27 NA GM NOT_NAMED 1939-06-13 15:00:00 TS 23.6650 -85.8424 main 211 211 P_____________ AL011939 23.6650 -85.8424 TS 55 0 11 355
1939163N18272 1939 27 NA GM NOT_NAMED 1939-06-13 18:00:00 TS 24.2000 -85.9000 55 hurdat_atl main 256 256 O_____________ hurdat_atl AL011939 24.2000 -85.9000 TS 55 0 11 355
1939163N18272 1939 27 NA GM NOT_NAMED 1939-06-13 21:00:00 TS 24.7150 -85.9426 main 295 295 P_____________ AL011939 24.7150 -85.9426 TS 55 0 10 355
1939163N18272 1939 27 NA GM NOT_NAMED 1939-06-14 00:00:00 TS 25.2000 -86.0000 55 hurdat_atl main 345 345 O_____________ hurdat_atl AL011939 25.2000 -86.0000 TS 55 0 10 352
1939163N18272 1939 27 NA GM NOT_NAMED 1939-06-14 03:00:00 TS 25.6650 -86.0851 main 391 381 P_____________ AL011939 25.6650 -86.0851 TS 52 0 9 349
1939163N18272 1939 27 NA GM NOT_NAMED 1939-06-14 06:00:00 TS 26.1000 -86.2000 50 hurdat_atl main 381 367 O_____________ hurdat_atl AL011939 26.1000 -86.2000 TS 50 0 9 346
1939163N18272 1939 27 NA GM NOT_NAMED 1939-06-14 09:00:00 TS 26.5149 -86.3202 main 367 330 P_____________ AL011939 26.5149 -86.3202 TS 50 0 8 341
1939163N18272 1939 27 NA GM NOT_NAMED 1939-06-14 12:00:00 TS 26.9000 -86.5000 50 hurdat_atl main 330 301 O_____________ hurdat_atl AL011939 26.9000 -86.5000 TS 50 0 9 332
1939163N18272 1939 27 NA GM NOT_NAMED 1939-06-14 15:00:00 TS 27.2650 -86.7700 main 294 250 P_____________ AL011939 27.2650 -86.7700 TS 50 0 9 323
1939163N18272 1939 27 NA GM NOT_NAMED 1939-06-14 18:00:00 TS 27.6000 -87.1000 50 hurdat_atl main 250 205 O_____________ hurdat_atl AL011939 27.6000 -87.1000 TS 50 0 9 318
1939163N18272 1939 27 NA GM NOT_NAMED 1939-06-14 21:00:00 TS 27.9225 -87.4500 main 205 154 P_____________ AL011939 27.9225 -87.4500 TS 50 0 9 314
1939163N18272 1939 27 NA GM NOT_NAMED 1939-06-15 00:00:00 TS 28.2000 -87.8000 50 hurdat_atl main 154 110 O_____________ hurdat_atl AL011939 28.2000 -87.8000 TS 50 0 8 311
1939163N18272 1939 27 NA GM NOT_NAMED 1939-06-15 03:00:00 TS 28.4676 -88.1524 main 102 80 P_____________ AL011939 28.4676 -88.1524 TS 50 0 7 307
1939163N18272 1939 27 NA GM NOT_NAMED 1939-06-15 06:00:00 TS 28.6000 -88.4000 50 hurdat_atl main 80 73 O_____________ hurdat_atl AL011939 28.6000 -88.4000 TS 50 0 3 268
1939163N18272 1939 27 NA GM NOT_NAMED 1939-06-15 09:00:00 TS 28.4574 -88.4676 main 80 80 P_____________ AL011939 28.4574 -88.4676 TS 50 0 3 0
1939163N18272 1939 27 NA GM NOT_NAMED 1939-06-15 12:00:00 TS 28.3000 -88.4000 50 hurdat_atl main 103 102 O_____________ hurdat_atl AL011939 28.3000 -88.4000 TS 50 0 2 111
1939163N18272 1939 27 NA GM NOT_NAMED 1939-06-15 15:00:00 TS 28.3901 -88.2651 main 102 102 P_____________ AL011939 28.3901 -88.2651 TS 50 0 4 41
1939163N18272 1939 27 NA GM NOT_NAMED 1939-06-15 18:00:00 TS 28.6000 -88.1000 50 hurdat_atl main 103 98 O_____________ hurdat_atl AL011939 28.6000 -88.1000 TS 50 0 5 28
1939163N18272 1939 27 NA GM NOT_NAMED 1939-06-15 21:00:00 TS 28.8350 -87.9925 main 102 97 P_____________ AL011939 28.8350 -87.9925 TS 50 0 5 20
1939163N18272 1939 27 NA GM NOT_NAMED 1939-06-16 00:00:00 TS 29.1000 -87.9000 50 hurdat_atl main 106 102 O_____________ hurdat_atl AL011939 29.1000 -87.9000 TS 50 0 5 19
1939163N18272 1939 27 NA GM NOT_NAMED 1939-06-16 03:00:00 TS 29.3425 -87.7925 main 102 72 P_____________ AL011939 29.3425 -87.7925 TS 50 0 5 19
1939163N18272 1939 27 NA GM NOT_NAMED 1939-06-16 06:00:00 TS 29.6000 -87.7000 50 hurdat_atl main 72 44 O_____________ hurdat_atl AL011939 29.6000 -87.7000 TS 50 0 6 14
1939163N18272 1939 27 NA GM NOT_NAMED 1939-06-16 09:00:00 TS 29.8940 -87.6305 main 44 11 P_____________ AL011939 29.8940 -87.6305 TS 50 0 6 8
1939163N18272 1939 27 NA GM NOT_NAMED 1939-06-16 12:00:00 TS 30.2000 -87.6000 50 hurdat_atl main 11 0 O_____________ hurdat_atl AL011939 30.2000 -87.6000 TS 50 0 6 0
1939163N18272 1939 27 NA GM NOT_NAMED 1939-06-16 13:00:00 TS 30.3000 -87.6000 50 hurdat_atl main 0 0 O_____________ hurdat_atl AL011939 30.3000 -87.6000 L TS 50 0 8 346
1939163N18272 1939 27 NA NA NOT_NAMED 1939-06-16 15:00:00 TS 30.6064 -87.7252 main 0 0 P_____________ AL011939 30.6064 -87.7252 TS 43 0 12 335
1939163N18272 1939 27 NA NA NOT_NAMED 1939-06-16 18:00:00 TS 31.2000 -88.1000 35 hurdat_atl main 0 0 O_____________ hurdat_atl AL011939 31.2000 -88.1000 TS 35 0 13 330
1939163N18272 1939 27 NA NA NOT_NAMED 1939-06-16 21:00:00 TS 31.6995 -88.4781 main 0 0 P_____________ AL011939 31.6995 -88.4781 TS 32 -1 12 329
1939163N18272 1939 27 NA NA NOT_NAMED 1939-06-17 00:00:00 TS 32.2000 -88.8000 30 hurdat_atl main 0 0 O_____________ hurdat_atl AL011939 32.2000 -88.8000 TD 30 -1 11 339
1939163N18272 1939 27 NA NA NOT_NAMED 1939-06-17 03:00:00 TS 32.7348 -88.9529 main 0 0 P_____________ AL011939 32.7348 -88.9529 TD 27 -1 11 351
1939163N18272 1939 27 NA NA NOT_NAMED 1939-06-17 06:00:00 TS 33.3000 -89.0000 25 hurdat_atl main 0 0 O_____________ hurdat_atl AL011939 33.3000 -89.0000 TD 25 -1 12 357
1939163N18272 1939 27 NA NA NOT_NAMED 1939-06-17 09:00:00 TS 33.8925 -89.0300 main 0 0 P_____________ AL011939 33.8925 -89.0300 TD 25 -1 12 1
1939163N18272 1939 27 NA NA NOT_NAMED 1939-06-17 12:00:00 TS 34.5000 -89.0000 25 hurdat_atl main 0 0 O_____________ hurdat_atl AL011939 34.5000 -89.0000 TD 25 -1 12 4
1939163N18272 1939 27 NA NA NOT_NAMED 1939-06-17 15:00:00 TS 35.0999 -88.9372 main 0 0 P_____________ AL011939 35.0999 -88.9372 TD 25 -1 12 8
1939163N18272 1939 27 NA NA NOT_NAMED 1939-06-17 18:00:00 TS 35.7000 -88.8000 25 hurdat_atl main 0 0 O_____________ hurdat_atl AL011939 35.7000 -88.8000 TD 25 -1 12 13
1939163N18272 1939 27 NA NA NOT_NAMED 1939-06-17 21:00:00 TS 36.2922 -88.6091 main 0 0 P_____________ AL011939 36.2922 -88.6091 TD 22 -1 13 19
1939163N18272 1939 27 NA NA NOT_NAMED 1939-06-18 00:00:00 TS 36.9000 -88.3000 20 hurdat_atl main 0 0 O_____________ hurdat_atl AL011939 36.9000 -88.3000 TD 20 -1 14 25
1939163N18272 1939 27 NA NA NOT_NAMED 1939-06-18 03:00:00 TS 37.5417 -87.8960 main 0 0 P_____________ AL011939 37.5417 -87.8960 TD 20 -1 15 31
1939163N18272 1939 27 NA NA NOT_NAMED 1939-06-18 06:00:00 TS 38.2000 -87.3000 20 hurdat_atl main 0 0 O_____________ hurdat_atl AL011939 38.2000 -87.3000 TD 20 -1 17 40
1939163N18272 1939 27 NA NA NOT_NAMED 1939-06-18 09:00:00 TS 38.8498 -86.4890 main 0 0 P_____________ AL011939 38.8498 -86.4890 TD 20 -1 19 47
1939163N18272 1939 27 NA NA NOT_NAMED 1939-06-18 12:00:00 ET 39.5000 -85.5000 20 hurdat_atl main 0 0 O_____________ hurdat_atl AL011939 39.5000 -85.5000 EX 20 -4 21 51
1939163N18272 1939 27 NA NA NOT_NAMED 1939-06-18 15:00:00 ET 40.1520 -84.4242 main 0 0 P_____________ AL011939 40.1520 -84.4242 EX 20 -4 21 52
1939163N18272 1939 27 NA NA NOT_NAMED 1939-06-18 18:00:00 ET 40.8000 -83.3000 20 hurdat_atl main 0 O_____________ hurdat_atl AL011939 40.8000 -83.3000 EX 20 -4 21 53

About IBTrACS Database

This database is a web-friendly format of International Best Track Archive for Climate Stewardship (IBTrACS), a global best track data archive curated by NOAA dating back to 1842.

Updated: 2021-12-03